sensor_id;sensor_type;location;lat;lon;timestamp;P1;durP1;ratioP1;P2;durP2;ratioP2
76939;SDS011;65885;55.848;35.916;2023-06-22T00:01:17;2.75;;;2.08;;
76939;SDS011;65885;55.848;35.916;2023-06-22T00:03:45;2.60;;;1.50;;
76939;SDS011;65885;55.848;35.916;2023-06-22T00:06:12;7.03;;;1.70;;
76939;SDS011;65885;55.848;35.916;2023-06-22T00:08:40;3.10;;;1.85;;
76939;SDS011;65885;55.848;35.916;2023-06-22T00:11:07;2.88;;;2.30;;
76939;SDS011;65885;55.848;35.916;2023-06-22T00:13:36;2.97;;;2.10;;
76939;SDS011;65885;55.848;35.916;2023-06-22T00:16:04;3.58;;;2.08;;
76939;SDS011;65885;55.848;35.916;2023-06-22T00:18:31;4.70;;;2.60;;
76939;SDS011;65885;55.848;35.916;2023-06-22T00:20:58;3.33;;;2.28;;
76939;SDS011;65885;55.848;35.916;2023-06-22T00:23:26;3.45;;;2.20;;
76939;SDS011;65885;55.848;35.916;2023-06-22T00:25:53;3.45;;;1.83;;
76939;SDS011;65885;55.848;35.916;2023-06-22T00:28:21;2.67;;;1.52;;
76939;SDS011;65885;55.848;35.916;2023-06-22T00:30:49;2.35;;;1.52;;
76939;SDS011;65885;55.848;35.916;2023-06-22T00:33:17;7.13;;;1.83;;
76939;SDS011;65885;55.848;35.916;2023-06-22T00:35:44;2.42;;;1.58;;
76939;SDS011;65885;55.848;35.916;2023-06-22T00:38:11;3.30;;;1.80;;
76939;SDS011;65885;55.848;35.916;2023-06-22T00:40:39;2.50;;;1.75;;
76939;SDS011;65885;55.848;35.916;2023-06-22T00:43:06;3.15;;;1.83;;
76939;SDS011;65885;55.848;35.916;2023-06-22T00:45:33;2.75;;;1.77;;
76939;SDS011;65885;55.848;35.916;2023-06-22T00:48:02;3.47;;;1.95;;
76939;SDS011;65885;55.848;35.916;2023-06-22T00:50:31;5.10;;;2.30;;
76939;SDS011;65885;55.848;35.916;2023-06-22T00:53:00;2.92;;;1.52;;
76939;SDS011;65885;55.848;35.916;2023-06-22T00:55:32;3.03;;;1.83;;
76939;SDS011;65885;55.848;35.916;2023-06-22T00:58:02;3.40;;;2.47;;
76939;SDS011;65885;55.848;35.916;2023-06-22T01:00:33;2.78;;;1.77;;
76939;SDS011;65885;55.848;35.916;2023-06-22T01:03:03;3.90;;;2.28;;
76939;SDS011;65885;55.848;35.916;2023-06-22T01:05:34;4.47;;;1.98;;
76939;SDS011;65885;55.848;35.916;2023-06-22T01:08:05;3.67;;;2.28;;
76939;SDS011;65885;55.848;35.916;2023-06-22T01:10:41;2.00;;;1.80;;
76939;SDS011;65885;55.848;35.916;2023-06-22T01:13:15;3.95;;;2.00;;
76939;SDS011;65885;55.848;35.916;2023-06-22T01:15:48;2.83;;;1.70;;
76939;SDS011;65885;55.848;35.916;2023-06-22T01:18:21;2.67;;;1.70;;
76939;SDS011;65885;55.848;35.916;2023-06-22T01:20:51;2.33;;;1.67;;
76939;SDS011;65885;55.848;35.916;2023-06-22T01:23:23;2.38;;;1.67;;
76939;SDS011;65885;55.848;35.916;2023-06-22T01:25:58;2.95;;;2.03;;
76939;SDS011;65885;55.848;35.916;2023-06-22T01:31:20;2.38;;;1.60;;
76939;SDS011;65885;55.848;35.916;2023-06-22T01:33:51;2.95;;;1.55;;
76939;SDS011;65885;55.848;35.916;2023-06-22T01:36:20;2.08;;;1.55;;
76939;SDS011;65885;55.848;35.916;2023-06-22T01:38:49;2.65;;;2.15;;
76939;SDS011;65885;55.848;35.916;2023-06-22T01:41:17;3.38;;;2.25;;
76939;SDS011;65885;55.848;35.916;2023-06-22T01:43:45;2.40;;;1.70;;
76939;SDS011;65885;55.848;35.916;2023-06-22T01:46:15;3.08;;;1.80;;
76939;SDS011;65885;55.848;35.916;2023-06-22T01:48:44;2.30;;;2.10;;
76939;SDS011;65885;55.848;35.916;2023-06-22T01:51:12;3.40;;;2.10;;
76939;SDS011;65885;55.848;35.916;2023-06-22T01:53:40;3.05;;;1.75;;
76939;SDS011;65885;55.848;35.916;2023-06-22T01:56:07;3.10;;;2.10;;
76939;SDS011;65885;55.848;35.916;2023-06-22T01:58:36;2.63;;;2.00;;
76939;SDS011;65885;55.848;35.916;2023-06-22T02:01:10;2.85;;;1.90;;
76939;SDS011;65885;55.848;35.916;2023-06-22T02:03:42;2.40;;;1.83;;
76939;SDS011;65885;55.848;35.916;2023-06-22T02:06:15;3.38;;;1.77;;
76939;SDS011;65885;55.848;35.916;2023-06-22T02:08:49;2.53;;;1.63;;
76939;SDS011;65885;55.848;35.916;2023-06-22T02:11:22;3.08;;;1.92;;
76939;SDS011;65885;55.848;35.916;2023-06-22T02:13:53;2.58;;;1.63;;
76939;SDS011;65885;55.848;35.916;2023-06-22T02:16:21;2.15;;;1.55;;
76939;SDS011;65885;55.848;35.916;2023-06-22T02:18:50;3.85;;;1.92;;
76939;SDS011;65885;55.848;35.916;2023-06-22T02:21:18;2.33;;;1.63;;
76939;SDS011;65885;55.848;35.916;2023-06-22T02:23:45;4.25;;;2.00;;
76939;SDS011;65885;55.848;35.916;2023-06-22T02:26:13;3.03;;;2.20;;
76939;SDS011;65885;55.848;35.916;2023-06-22T02:28:42;4.68;;;2.30;;
76939;SDS011;65885;55.848;35.916;2023-06-22T02:31:11;3.75;;;2.30;;
76939;SDS011;65885;55.848;35.916;2023-06-22T02:33:38;4.28;;;2.45;;
76939;SDS011;65885;55.848;35.916;2023-06-22T02:36:07;3.63;;;2.28;;
76939;SDS011;65885;55.848;35.916;2023-06-22T02:38:34;3.50;;;2.10;;
76939;SDS011;65885;55.848;35.916;2023-06-22T02:41:02;2.90;;;2.05;;
76939;SDS011;65885;55.848;35.916;2023-06-22T02:43:30;2.67;;;1.77;;
76939;SDS011;65885;55.848;35.916;2023-06-22T02:45:57;2.50;;;1.98;;
76939;SDS011;65885;55.848;35.916;2023-06-22T02:48:25;2.17;;;1.67;;
76939;SDS011;65885;55.848;35.916;2023-06-22T02:50:52;2.72;;;2.22;;
76939;SDS011;65885;55.848;35.916;2023-06-22T02:53:20;3.05;;;2.30;;
76939;SDS011;65885;55.848;35.916;2023-06-22T02:55:48;3.33;;;2.80;;
76939;SDS011;65885;55.848;35.916;2023-06-22T02:58:15;3.30;;;2.33;;
76939;SDS011;65885;55.848;35.916;2023-06-22T03:00:42;2.47;;;1.92;;
76939;SDS011;65885;55.848;35.916;2023-06-22T03:03:09;2.53;;;1.80;;
76939;SDS011;65885;55.848;35.916;2023-06-22T03:05:37;2.17;;;1.73;;
76939;SDS011;65885;55.848;35.916;2023-06-22T03:08:05;2.80;;;1.95;;
76939;SDS011;65885;55.848;35.916;2023-06-22T03:10:34;3.85;;;2.58;;
76939;SDS011;65885;55.848;35.916;2023-06-22T03:13:01;4.40;;;2.40;;
76939;SDS011;65885;55.848;35.916;2023-06-22T03:15:28;3.58;;;2.60;;
76939;SDS011;65885;55.848;35.916;2023-06-22T03:17:56;4.38;;;2.63;;
76939;SDS011;65885;55.848;35.916;2023-06-22T03:20:24;5.22;;;2.70;;
76939;SDS011;65885;55.848;35.916;2023-06-22T03:22:52;4.20;;;2.83;;
76939;SDS011;65885;55.848;35.916;2023-06-22T03:25:19;3.80;;;2.88;;
76939;SDS011;65885;55.848;35.916;2023-06-22T03:27:48;4.90;;;2.83;;
76939;SDS011;65885;55.848;35.916;2023-06-22T03:30:15;4.80;;;3.55;;
76939;SDS011;65885;55.848;35.916;2023-06-22T03:32:43;3.15;;;2.17;;
76939;SDS011;65885;55.848;35.916;2023-06-22T03:35:11;4.32;;;3.33;;
76939;SDS011;65885;55.848;35.916;2023-06-22T03:37:39;5.28;;;3.33;;
76939;SDS011;65885;55.848;35.916;2023-06-22T03:40:07;3.95;;;2.30;;
76939;SDS011;65885;55.848;35.916;2023-06-22T03:42:35;3.65;;;2.28;;
76939;SDS011;65885;55.848;35.916;2023-06-22T03:45:05;4.93;;;2.97;;
76939;SDS011;65885;55.848;35.916;2023-06-22T03:47:33;3.35;;;2.58;;
76939;SDS011;65885;55.848;35.916;2023-06-22T03:50:01;4.28;;;3.20;;
76939;SDS011;65885;55.848;35.916;2023-06-22T03:52:29;5.15;;;3.13;;
76939;SDS011;65885;55.848;35.916;2023-06-22T03:54:56;4.10;;;2.50;;
76939;SDS011;65885;55.848;35.916;2023-06-22T03:57:24;4.03;;;2.80;;
76939;SDS011;65885;55.848;35.916;2023-06-22T03:59:51;5.60;;;2.90;;
76939;SDS011;65885;55.848;35.916;2023-06-22T04:02:19;4.35;;;3.03;;
76939;SDS011;65885;55.848;35.916;2023-06-22T04:04:47;3.63;;;2.42;;
76939;SDS011;65885;55.848;35.916;2023-06-22T04:07:15;4.63;;;2.25;;
76939;SDS011;65885;55.848;35.916;2023-06-22T04:09:43;4.50;;;2.42;;
76939;SDS011;65885;55.848;35.916;2023-06-22T04:12:10;3.55;;;2.80;;
76939;SDS011;65885;55.848;35.916;2023-06-22T04:14:37;4.32;;;3.03;;
76939;SDS011;65885;55.848;35.916;2023-06-22T04:17:05;4.72;;;2.83;;
76939;SDS011;65885;55.848;35.916;2023-06-22T04:19:33;4.88;;;2.95;;
76939;SDS011;65885;55.848;35.916;2023-06-22T04:22:01;4.15;;;2.75;;
76939;SDS011;65885;55.848;35.916;2023-06-22T04:24:28;4.28;;;2.88;;
76939;SDS011;65885;55.848;35.916;2023-06-22T04:26:55;4.40;;;2.78;;
76939;SDS011;65885;55.848;35.916;2023-06-22T04:29:23;3.63;;;2.20;;
76939;SDS011;65885;55.848;35.916;2023-06-22T04:31:54;4.93;;;3.13;;
76939;SDS011;65885;55.848;35.916;2023-06-22T04:34:23;3.42;;;2.35;;
76939;SDS011;65885;55.848;35.916;2023-06-22T04:36:53;4.10;;;2.85;;
76939;SDS011;65885;55.848;35.916;2023-06-22T04:39:20;4.55;;;3.00;;
76939;SDS011;65885;55.848;35.916;2023-06-22T04:41:48;4.60;;;3.35;;
76939;SDS011;65885;55.848;35.916;2023-06-22T04:44:17;4.57;;;3.13;;
76939;SDS011;65885;55.848;35.916;2023-06-22T04:46:50;5.72;;;4.00;;
76939;SDS011;65885;55.848;35.916;2023-06-22T04:49:19;4.25;;;3.03;;
76939;SDS011;65885;55.848;35.916;2023-06-22T04:51:48;7.75;;;3.80;;
76939;SDS011;65885;55.848;35.916;2023-06-22T04:54:18;6.57;;;3.60;;
76939;SDS011;65885;55.848;35.916;2023-06-22T04:56:45;7.55;;;3.55;;
76939;SDS011;65885;55.848;35.916;2023-06-22T04:59:13;6.47;;;4.22;;
76939;SDS011;65885;55.848;35.916;2023-06-22T05:01:43;5.40;;;3.03;;
76939;SDS011;65885;55.848;35.916;2023-06-22T05:04:11;4.53;;;3.10;;
76939;SDS011;65885;55.848;35.916;2023-06-22T05:06:38;3.92;;;2.63;;
76939;SDS011;65885;55.848;35.916;2023-06-22T05:09:05;3.60;;;2.67;;
76939;SDS011;65885;55.848;35.916;2023-06-22T05:11:34;4.72;;;3.15;;
76939;SDS011;65885;55.848;35.916;2023-06-22T05:14:03;3.88;;;2.80;;
76939;SDS011;65885;55.848;35.916;2023-06-22T05:16:30;4.40;;;3.00;;
76939;SDS011;65885;55.848;35.916;2023-06-22T05:18:57;3.60;;;2.72;;
76939;SDS011;65885;55.848;35.916;2023-06-22T05:21:25;3.72;;;2.60;;
76939;SDS011;65885;55.848;35.916;2023-06-22T05:23:54;3.95;;;2.67;;
76939;SDS011;65885;55.848;35.916;2023-06-22T05:26:25;4.07;;;2.67;;
76939;SDS011;65885;55.848;35.916;2023-06-22T05:28:54;3.75;;;2.65;;
76939;SDS011;65885;55.848;35.916;2023-06-22T05:31:22;4.20;;;2.50;;
76939;SDS011;65885;55.848;35.916;2023-06-22T05:33:51;2.83;;;2.33;;
76939;SDS011;65885;55.848;35.916;2023-06-22T05:36:19;3.05;;;2.45;;
76939;SDS011;65885;55.848;35.916;2023-06-22T05:38:50;3.20;;;2.50;;
76939;SDS011;65885;55.848;35.916;2023-06-22T05:41:18;2.50;;;2.00;;
76939;SDS011;65885;55.848;35.916;2023-06-22T05:43:45;3.30;;;2.33;;
76939;SDS011;65885;55.848;35.916;2023-06-22T05:46:14;2.58;;;2.10;;
76939;SDS011;65885;55.848;35.916;2023-06-22T05:48:42;3.55;;;2.30;;
76939;SDS011;65885;55.848;35.916;2023-06-22T05:51:10;2.78;;;2.20;;
76939;SDS011;65885;55.848;35.916;2023-06-22T05:53:37;2.85;;;2.13;;
76939;SDS011;65885;55.848;35.916;2023-06-22T05:56:04;2.53;;;1.90;;
76939;SDS011;65885;55.848;35.916;2023-06-22T05:58:32;2.63;;;2.30;;
76939;SDS011;65885;55.848;35.916;2023-06-22T06:00:59;2.45;;;1.70;;
76939;SDS011;65885;55.848;35.916;2023-06-22T06:03:28;2.78;;;2.15;;
76939;SDS011;65885;55.848;35.916;2023-06-22T06:05:56;2.95;;;2.08;;
76939;SDS011;65885;55.848;35.916;2023-06-22T06:08:23;2.60;;;1.90;;
76939;SDS011;65885;55.848;35.916;2023-06-22T06:10:52;4.00;;;2.40;;
76939;SDS011;65885;55.848;35.916;2023-06-22T06:13:20;2.85;;;2.05;;
76939;SDS011;65885;55.848;35.916;2023-06-22T06:15:47;2.78;;;2.30;;
76939;SDS011;65885;55.848;35.916;2023-06-22T06:18:16;2.75;;;1.70;;
76939;SDS011;65885;55.848;35.916;2023-06-22T06:20:45;2.47;;;1.92;;
76939;SDS011;65885;55.848;35.916;2023-06-22T06:23:12;3.15;;;2.13;;
76939;SDS011;65885;55.848;35.916;2023-06-22T06:25:40;2.55;;;2.03;;
76939;SDS011;65885;55.848;35.916;2023-06-22T06:28:07;2.85;;;2.00;;
76939;SDS011;65885;55.848;35.916;2023-06-22T06:30:35;2.38;;;1.92;;
76939;SDS011;65885;55.848;35.916;2023-06-22T06:33:03;2.00;;;1.77;;
76939;SDS011;65885;55.848;35.916;2023-06-22T06:35:34;3.65;;;2.20;;
76939;SDS011;65885;55.848;35.916;2023-06-22T06:38:04;2.47;;;2.05;;
76939;SDS011;65885;55.848;35.916;2023-06-22T06:40:32;2.38;;;1.92;;
76939;SDS011;65885;55.848;35.916;2023-06-22T06:42:59;3.05;;;2.30;;
76939;SDS011;65885;55.848;35.916;2023-06-22T06:45:27;2.67;;;2.13;;
76939;SDS011;65885;55.848;35.916;2023-06-22T06:47:56;2.53;;;1.92;;
76939;SDS011;65885;55.848;35.916;2023-06-22T06:50:24;2.63;;;2.03;;
76939;SDS011;65885;55.848;35.916;2023-06-22T06:52:51;2.90;;;2.33;;
76939;SDS011;65885;55.848;35.916;2023-06-22T06:55:20;4.47;;;2.72;;
76939;SDS011;65885;55.848;35.916;2023-06-22T06:57:50;2.42;;;1.90;;
76939;SDS011;65885;55.848;35.916;2023-06-22T07:00:18;3.38;;;2.60;;
76939;SDS011;65885;55.848;35.916;2023-06-22T07:02:46;4.90;;;2.10;;
76939;SDS011;65885;55.848;35.916;2023-06-22T07:05:14;2.90;;;2.17;;
76939;SDS011;65885;55.848;35.916;2023-06-22T07:07:41;3.03;;;2.13;;
76939;SDS011;65885;55.848;35.916;2023-06-22T07:10:09;2.83;;;1.92;;
76939;SDS011;65885;55.848;35.916;2023-06-22T07:12:38;2.35;;;1.90;;
76939;SDS011;65885;55.848;35.916;2023-06-22T07:15:06;2.97;;;2.20;;
76939;SDS011;65885;55.848;35.916;2023-06-22T07:17:34;2.78;;;2.25;;
76939;SDS011;65885;55.848;35.916;2023-06-22T07:20:02;3.10;;;2.30;;
76939;SDS011;65885;55.848;35.916;2023-06-22T07:22:35;3.58;;;2.35;;
76939;SDS011;65885;55.848;35.916;2023-06-22T07:25:02;2.72;;;1.98;;
76939;SDS011;65885;55.848;35.916;2023-06-22T07:27:34;3.13;;;2.40;;
76939;SDS011;65885;55.848;35.916;2023-06-22T07:30:07;2.33;;;2.00;;
76939;SDS011;65885;55.848;35.916;2023-06-22T07:35:03;2.60;;;2.15;;
76939;SDS011;65885;55.848;35.916;2023-06-22T07:37:31;2.70;;;2.20;;
76939;SDS011;65885;55.848;35.916;2023-06-22T07:40:00;2.78;;;2.00;;
76939;SDS011;65885;55.848;35.916;2023-06-22T07:42:31;3.53;;;2.92;;
76939;SDS011;65885;55.848;35.916;2023-06-22T07:44:59;3.20;;;2.22;;
76939;SDS011;65885;55.848;35.916;2023-06-22T07:50:00;3.13;;;2.53;;
76939;SDS011;65885;55.848;35.916;2023-06-22T07:52:30;4.82;;;2.63;;
76939;SDS011;65885;55.848;35.916;2023-06-22T07:54:57;3.08;;;2.03;;
76939;SDS011;65885;55.848;35.916;2023-06-22T07:57:25;4.72;;;2.55;;
76939;SDS011;65885;55.848;35.916;2023-06-22T07:59:58;2.55;;;2.35;;
76939;SDS011;65885;55.848;35.916;2023-06-22T08:02:25;3.00;;;2.42;;
76939;SDS011;65885;55.848;35.916;2023-06-22T08:04:54;3.17;;;2.70;;
76939;SDS011;65885;55.848;35.916;2023-06-22T08:07:21;3.53;;;2.80;;
76939;SDS011;65885;55.848;35.916;2023-06-22T08:09:49;3.33;;;2.83;;
76939;SDS011;65885;55.848;35.916;2023-06-22T08:12:16;3.00;;;2.67;;
76939;SDS011;65885;55.848;35.916;2023-06-22T08:14:44;4.35;;;2.90;;
76939;SDS011;65885;55.848;35.916;2023-06-22T08:17:12;3.85;;;2.53;;
76939;SDS011;65885;55.848;35.916;2023-06-22T08:19:39;4.00;;;2.60;;
76939;SDS011;65885;55.848;35.916;2023-06-22T08:22:08;3.42;;;2.65;;
76939;SDS011;65885;55.848;35.916;2023-06-22T08:24:36;3.05;;;2.63;;
76939;SDS011;65885;55.848;35.916;2023-06-22T08:27:03;2.78;;;2.30;;
76939;SDS011;65885;55.848;35.916;2023-06-22T08:29:35;3.08;;;2.50;;
76939;SDS011;65885;55.848;35.916;2023-06-22T08:32:02;2.85;;;2.58;;
76939;SDS011;65885;55.848;35.916;2023-06-22T08:34:30;3.30;;;2.70;;
76939;SDS011;65885;55.848;35.916;2023-06-22T08:36:57;3.15;;;2.80;;
76939;SDS011;65885;55.848;35.916;2023-06-22T08:39:26;3.50;;;3.20;;
76939;SDS011;65885;55.848;35.916;2023-06-22T08:44:22;3.13;;;2.60;;
76939;SDS011;65885;55.848;35.916;2023-06-22T08:46:49;2.78;;;2.50;;
76939;SDS011;65885;55.848;35.916;2023-06-22T08:49:17;3.10;;;2.67;;
76939;SDS011;65885;55.848;35.916;2023-06-22T08:51:44;3.08;;;2.50;;
76939;SDS011;65885;55.848;35.916;2023-06-22T08:54:14;3.00;;;2.40;;
76939;SDS011;65885;55.848;35.916;2023-06-22T08:56:43;3.90;;;2.50;;
76939;SDS011;65885;55.848;35.916;2023-06-22T08:59:10;2.78;;;2.58;;
76939;SDS011;65885;55.848;35.916;2023-06-22T09:01:38;3.10;;;2.42;;
76939;SDS011;65885;55.848;35.916;2023-06-22T09:04:05;2.58;;;2.15;;
76939;SDS011;65885;55.848;35.916;2023-06-22T09:06:34;3.10;;;2.70;;
76939;SDS011;65885;55.848;35.916;2023-06-22T09:09:06;3.92;;;2.63;;
76939;SDS011;65885;55.848;35.916;2023-06-22T09:11:34;3.50;;;2.60;;
76939;SDS011;65885;55.848;35.916;2023-06-22T09:14:03;3.17;;;2.72;;
76939;SDS011;65885;55.848;35.916;2023-06-22T09:16:31;3.53;;;2.45;;
76939;SDS011;65885;55.848;35.916;2023-06-22T09:18:59;2.60;;;2.40;;
76939;SDS011;65885;55.848;35.916;2023-06-22T09:21:27;3.78;;;2.65;;
76939;SDS011;65885;55.848;35.916;2023-06-22T09:23:55;3.13;;;2.72;;
76939;SDS011;65885;55.848;35.916;2023-06-22T09:26:22;3.95;;;2.92;;
76939;SDS011;65885;55.848;35.916;2023-06-22T09:28:50;2.95;;;2.67;;
76939;SDS011;65885;55.848;35.916;2023-06-22T09:31:19;3.17;;;2.42;;
76939;SDS011;65885;55.848;35.916;2023-06-22T09:33:51;3.63;;;2.60;;
76939;SDS011;65885;55.848;35.916;2023-06-22T09:36:19;2.95;;;2.25;;
76939;SDS011;65885;55.848;35.916;2023-06-22T09:38:47;4.30;;;2.75;;
76939;SDS011;65885;55.848;35.916;2023-06-22T09:41:21;2.83;;;2.38;;
76939;SDS011;65885;55.848;35.916;2023-06-22T09:43:49;3.30;;;2.42;;
76939;SDS011;65885;55.848;35.916;2023-06-22T09:46:17;3.40;;;2.85;;
76939;SDS011;65885;55.848;35.916;2023-06-22T09:48:48;4.20;;;2.55;;
76939;SDS011;65885;55.848;35.916;2023-06-22T09:51:17;3.15;;;2.50;;
76939;SDS011;65885;55.848;35.916;2023-06-22T09:53:45;3.30;;;2.88;;
76939;SDS011;65885;55.848;35.916;2023-06-22T09:56:12;3.55;;;3.10;;
76939;SDS011;65885;55.848;35.916;2023-06-22T09:58:41;3.13;;;2.60;;
76939;SDS011;65885;55.848;35.916;2023-06-22T10:01:09;3.83;;;2.80;;
76939;SDS011;65885;55.848;35.916;2023-06-22T10:03:36;4.55;;;2.97;;
76939;SDS011;65885;55.848;35.916;2023-06-22T10:06:05;2.78;;;2.40;;
76939;SDS011;65885;55.848;35.916;2023-06-22T10:08:32;3.13;;;2.53;;
76939;SDS011;65885;55.848;35.916;2023-06-22T10:11:00;3.55;;;2.63;;
76939;SDS011;65885;55.848;35.916;2023-06-22T10:13:27;2.78;;;2.50;;
76939;SDS011;65885;55.848;35.916;2023-06-22T10:15:54;3.17;;;2.50;;
76939;SDS011;65885;55.848;35.916;2023-06-22T10:18:21;3.42;;;2.90;;
76939;SDS011;65885;55.848;35.916;2023-06-22T10:20:49;3.47;;;2.97;;
76939;SDS011;65885;55.848;35.916;2023-06-22T10:23:19;3.83;;;2.80;;
76939;SDS011;65885;55.848;35.916;2023-06-22T10:25:47;3.97;;;3.33;;
76939;SDS011;65885;55.848;35.916;2023-06-22T10:28:14;3.55;;;3.17;;
76939;SDS011;65885;55.848;35.916;2023-06-22T10:30:42;7.25;;;2.33;;
76939;SDS011;65885;55.848;35.916;2023-06-22T10:33:10;4.05;;;3.03;;
76939;SDS011;65885;55.848;35.916;2023-06-22T10:35:38;3.80;;;2.60;;
76939;SDS011;65885;55.848;35.916;2023-06-22T10:38:06;3.10;;;2.50;;
76939;SDS011;65885;55.848;35.916;2023-06-22T10:40:35;3.72;;;2.78;;
76939;SDS011;65885;55.848;35.916;2023-06-22T10:43:04;4.50;;;2.60;;
76939;SDS011;65885;55.848;35.916;2023-06-22T10:45:32;4.13;;;3.10;;
76939;SDS011;65885;55.848;35.916;2023-06-22T10:47:59;3.75;;;3.05;;
76939;SDS011;65885;55.848;35.916;2023-06-22T10:50:27;3.63;;;3.13;;
76939;SDS011;65885;55.848;35.916;2023-06-22T10:52:55;3.72;;;2.63;;
76939;SDS011;65885;55.848;35.916;2023-06-22T10:55:22;4.38;;;3.03;;
76939;SDS011;65885;55.848;35.916;2023-06-22T10:57:51;5.72;;;3.15;;
76939;SDS011;65885;55.848;35.916;2023-06-22T11:00:18;4.30;;;3.05;;
76939;SDS011;65885;55.848;35.916;2023-06-22T11:02:46;4.20;;;3.47;;
76939;SDS011;65885;55.848;35.916;2023-06-22T11:05:14;4.22;;;3.33;;
76939;SDS011;65885;55.848;35.916;2023-06-22T11:07:41;3.70;;;2.88;;
76939;SDS011;65885;55.848;35.916;2023-06-22T11:10:10;3.95;;;2.92;;
76939;SDS011;65885;55.848;35.916;2023-06-22T11:12:37;3.25;;;2.92;;
76939;SDS011;65885;55.848;35.916;2023-06-22T11:15:07;3.45;;;3.15;;
76939;SDS011;65885;55.848;35.916;2023-06-22T11:17:35;4.13;;;3.22;;
76939;SDS011;65885;55.848;35.916;2023-06-22T11:20:03;3.85;;;3.30;;
76939;SDS011;65885;55.848;35.916;2023-06-22T11:22:36;5.05;;;3.30;;
76939;SDS011;65885;55.848;35.916;2023-06-22T11:25:05;4.28;;;3.10;;
76939;SDS011;65885;55.848;35.916;2023-06-22T11:27:32;4.45;;;3.67;;
76939;SDS011;65885;55.848;35.916;2023-06-22T11:30:00;3.92;;;3.00;;
76939;SDS011;65885;55.848;35.916;2023-06-22T11:32:31;3.22;;;2.85;;
76939;SDS011;65885;55.848;35.916;2023-06-22T11:34:58;4.65;;;3.42;;
76939;SDS011;65885;55.848;35.916;2023-06-22T11:37:25;3.40;;;3.10;;
76939;SDS011;65885;55.848;35.916;2023-06-22T11:39:52;3.53;;;2.90;;
76939;SDS011;65885;55.848;35.916;2023-06-22T11:42:20;4.00;;;3.30;;
76939;SDS011;65885;55.848;35.916;2023-06-22T11:44:48;3.63;;;3.13;;
76939;SDS011;65885;55.848;35.916;2023-06-22T11:47:16;4.32;;;3.13;;
76939;SDS011;65885;55.848;35.916;2023-06-22T11:49:45;3.72;;;3.03;;
76939;SDS011;65885;55.848;35.916;2023-06-22T11:52:13;4.38;;;3.05;;
76939;SDS011;65885;55.848;35.916;2023-06-22T11:54:40;3.90;;;2.92;;
76939;SDS011;65885;55.848;35.916;2023-06-22T11:57:07;4.45;;;3.33;;
76939;SDS011;65885;55.848;35.916;2023-06-22T11:59:35;3.60;;;2.60;;
76939;SDS011;65885;55.848;35.916;2023-06-22T12:02:02;5.25;;;3.17;;
76939;SDS011;65885;55.848;35.916;2023-06-22T12:04:31;3.75;;;2.92;;
76939;SDS011;65885;55.848;35.916;2023-06-22T12:07:00;3.13;;;2.80;;
76939;SDS011;65885;55.848;35.916;2023-06-22T12:09:27;3.08;;;2.78;;
76939;SDS011;65885;55.848;35.916;2023-06-22T12:11:57;4.28;;;3.28;;
76939;SDS011;65885;55.848;35.916;2023-06-22T12:14:24;4.15;;;2.83;;
76939;SDS011;65885;55.848;35.916;2023-06-22T12:16:51;3.95;;;2.90;;
76939;SDS011;65885;55.848;35.916;2023-06-22T12:19:18;3.50;;;3.05;;
76939;SDS011;65885;55.848;35.916;2023-06-22T12:21:46;3.05;;;2.72;;
76939;SDS011;65885;55.848;35.916;2023-06-22T12:24:14;4.65;;;3.22;;
76939;SDS011;65885;55.848;35.916;2023-06-22T12:26:42;3.83;;;2.88;;
76939;SDS011;65885;55.848;35.916;2023-06-22T12:29:10;3.53;;;3.03;;
76939;SDS011;65885;55.848;35.916;2023-06-22T12:31:37;3.78;;;2.95;;
76939;SDS011;65885;55.848;35.916;2023-06-22T12:34:05;4.05;;;2.60;;
76939;SDS011;65885;55.848;35.916;2023-06-22T12:36:32;3.40;;;2.55;;
76939;SDS011;65885;55.848;35.916;2023-06-22T12:39:00;3.67;;;2.72;;
76939;SDS011;65885;55.848;35.916;2023-06-22T12:41:29;3.65;;;2.70;;
76939;SDS011;65885;55.848;35.916;2023-06-22T12:43:56;3.65;;;2.80;;
76939;SDS011;65885;55.848;35.916;2023-06-22T12:46:23;5.05;;;3.33;;
76939;SDS011;65885;55.848;35.916;2023-06-22T12:48:51;3.55;;;2.72;;
76939;SDS011;65885;55.848;35.916;2023-06-22T12:51:21;3.50;;;2.55;;
76939;SDS011;65885;55.848;35.916;2023-06-22T12:53:49;3.78;;;3.13;;
76939;SDS011;65885;55.848;35.916;2023-06-22T12:56:17;3.78;;;2.58;;
76939;SDS011;65885;55.848;35.916;2023-06-22T12:58:45;3.30;;;3.00;;
76939;SDS011;65885;55.848;35.916;2023-06-22T13:01:13;3.22;;;2.63;;
76939;SDS011;65885;55.848;35.916;2023-06-22T13:03:41;3.47;;;2.80;;
76939;SDS011;65885;55.848;35.916;2023-06-22T13:06:08;4.40;;;2.40;;
76939;SDS011;65885;55.848;35.916;2023-06-22T13:08:36;3.55;;;2.80;;
76939;SDS011;65885;55.848;35.916;2023-06-22T13:11:03;4.13;;;2.78;;
76939;SDS011;65885;55.848;35.916;2023-06-22T13:13:31;3.22;;;2.90;;
76939;SDS011;65885;55.848;35.916;2023-06-22T13:16:01;3.55;;;2.60;;
76939;SDS011;65885;55.848;35.916;2023-06-22T13:18:28;3.25;;;2.70;;
76939;SDS011;65885;55.848;35.916;2023-06-22T13:20:56;3.60;;;2.42;;
76939;SDS011;65885;55.848;35.916;2023-06-22T13:23:23;3.42;;;2.50;;
76939;SDS011;65885;55.848;35.916;2023-06-22T13:25:51;3.63;;;2.92;;
76939;SDS011;65885;55.848;35.916;2023-06-22T13:28:18;3.53;;;2.30;;
76939;SDS011;65885;55.848;35.916;2023-06-22T13:30:46;3.05;;;2.45;;
76939;SDS011;65885;55.848;35.916;2023-06-22T13:33:15;3.08;;;2.50;;
76939;SDS011;65885;55.848;35.916;2023-06-22T13:35:42;3.30;;;2.67;;
76939;SDS011;65885;55.848;35.916;2023-06-22T13:38:10;3.00;;;2.28;;
76939;SDS011;65885;55.848;35.916;2023-06-22T13:40:37;3.47;;;2.67;;
76939;SDS011;65885;55.848;35.916;2023-06-22T13:43:04;2.97;;;2.38;;
76939;SDS011;65885;55.848;35.916;2023-06-22T13:45:32;3.65;;;2.67;;
76939;SDS011;65885;55.848;35.916;2023-06-22T13:48:00;3.75;;;2.70;;
76939;SDS011;65885;55.848;35.916;2023-06-22T13:50:29;2.97;;;2.60;;
76939;SDS011;65885;55.848;35.916;2023-06-22T13:52:57;4.63;;;2.72;;
76939;SDS011;65885;55.848;35.916;2023-06-22T13:55:24;3.05;;;2.20;;
76939;SDS011;65885;55.848;35.916;2023-06-22T13:57:52;3.67;;;3.00;;
76939;SDS011;65885;55.848;35.916;2023-06-22T14:00:19;4.53;;;2.70;;
76939;SDS011;65885;55.848;35.916;2023-06-22T14:02:47;3.70;;;2.67;;
76939;SDS011;65885;55.848;35.916;2023-06-22T14:05:14;3.40;;;2.50;;
76939;SDS011;65885;55.848;35.916;2023-06-22T14:07:43;2.90;;;2.60;;
76939;SDS011;65885;55.848;35.916;2023-06-22T14:10:10;3.00;;;2.42;;
76939;SDS011;65885;55.848;35.916;2023-06-22T14:12:38;3.03;;;2.72;;
76939;SDS011;65885;55.848;35.916;2023-06-22T14:15:05;3.83;;;2.70;;
76939;SDS011;65885;55.848;35.916;2023-06-22T14:17:33;3.70;;;2.70;;
76939;SDS011;65885;55.848;35.916;2023-06-22T14:20:00;2.70;;;2.28;;
76939;SDS011;65885;55.848;35.916;2023-06-22T14:22:29;3.83;;;2.78;;
76939;SDS011;65885;55.848;35.916;2023-06-22T14:24:58;3.25;;;2.70;;
76939;SDS011;65885;55.848;35.916;2023-06-22T14:27:25;3.53;;;2.58;;
76939;SDS011;65885;55.848;35.916;2023-06-22T14:29:52;4.65;;;2.92;;
76939;SDS011;65885;55.848;35.916;2023-06-22T14:32:20;3.15;;;2.40;;
76939;SDS011;65885;55.848;35.916;2023-06-22T14:34:47;4.43;;;2.78;;
76939;SDS011;65885;55.848;35.916;2023-06-22T14:37:15;3.80;;;2.55;;
76939;SDS011;65885;55.848;35.916;2023-06-22T14:39:42;3.03;;;2.60;;
76939;SDS011;65885;55.848;35.916;2023-06-22T14:42:11;3.53;;;2.40;;
76939;SDS011;65885;55.848;35.916;2023-06-22T14:44:38;3.72;;;2.60;;
76939;SDS011;65885;55.848;35.916;2023-06-22T14:47:06;3.65;;;2.80;;
76939;SDS011;65885;55.848;35.916;2023-06-22T14:49:34;3.97;;;3.03;;